Relevés horaires Chievres (Belgique)


Relevés horaires à Chievres - Jeudi 10 Mars 2022
Heure UTC1 Température [°C] Vent [km/h] Hum. [%] Pres.4 [hPa] Visi. [Km] Nébu. [octa] Préc.5 [mm] Cond.
2m. Res. Ros. Dir.2 Vit. Moy. Raf.3
23:00 5.5 4.4 -1.0 ESE 5.6 -- 9.3 63 1016.5(-1.5/3h) 11 -- -- --
22:00 5.2 4.1 -0.3 ESE 5.6 -- 7.4 68 1017(-1.2/3h) 10 -- -- --
21:00 4.9 4.9 0.6 NNO 1.9 -- 7.4 74 1017.6(-0.8/3h) 12 -- -- --
20:00 8.6 8.6 0.8 SE 3.7 -- 7.4 58 1017.8(-0.3/3h) 14 -- -- --
19:00 9.8 9.8 1.8 ESE 3.7 -- 5.6 57 1018.2(-0.4/3h) 18 -- -- --
18:00 11.6 11.6 2.7 NNO 1.9 -- 14.8 54 1018.2(-0.8/3h) 7 -- -- --
17:00 14.4 14.4 2.1 SE 3.7 -- 13.0 43 1018.1(-1.4/3h) 20 -- -- --
16:00 15.5 15.5 2.4 SSE 7.4 -- 14.8 41 1018.5(-1.8/3h) 20 -- -- --
15:00 16.1 16.1 3.6 SE 7.4 -- 13.0 43 1019(-1.9/3h) 20 -- -- --
14:00 16.0 15.9 3.2 S 9.3 -- 13.0 42 1019.5(-2.0/3h) 20 -- -- --
13:00 15.6 15.6 3.7 S 7.4 -- 11.1 45 1020.2(-1.6/3h) 20 -- -- --
12:00 14.5 14.4 3.5 S 7.4 -- 13.0 48 1021(-1.2/3h) 19 -- -- --
11:00 12.6 12.2 2.8 SSE 7.4 -- 13.0 51 1021.7(-0.8/3h) 17 -- -- --
10:00 10.3 9.9 2.1 SSE 5.6 -- 11.1 57 1022.2(-0.2/3h) 16 -- -- --
09:00 8.9 8.3 1.2 SSE 5.6 -- 11.1 58 1022.5(0.1/3h) 16 -- -- --
08:00 7.5 6.7 1.0 SE 5.6 -- 9.3 63 1022.7(0.3/3h) 14 -- -- --
07:00 5.5 5.5 0.3 SE 3.7 -- 7.4 69 1022.5(0.3/3h) 16 -- -- --
06:00 4.4 4.4 -0.1 SSE 3.7 -- 11.1 72 1022.3(0.3/3h) 14 -- -- --
05:00 4.6 4.6 -0.3 SE 3.7 -- 11.1 70 1022.3(0.2/3h) 14 -- -- --
04:00 5.4 3.8 -0.2 SSE 7.4 -- 9.3 67 1022.2(-0.2/3h) 15 -- -- --
03:00 5.9 4.9 -0.6 SSE 5.6 -- 11.1 63 1022(-0.3/3h) 15 -- -- --
02:00 6.4 4.9 -0.7 SE 7.4 -- 11.1 60 1022.1(-0.1/3h) 16 -- -- --
01:00 3.6 3.6 -1.3 NNO 1.9 -- 3.7 70 1022.5(0.1/3h) 11 -- -- --
00:00 3.0 3.0 -0.9 NNO 1.9 -- 9.3 75 1022.5(0.5/3h) 11 -- -- --

1 Coordinated Universal Time. Actuellement il est 15:00 locale et 14:00 UTC.

2 Le vent souffle depuis la direction indiquée vers la direction oposée.

3 Les rafales max. sont disponible 40 min après l'heure du relevé.

4 Pour les stations d'altitude (plus de 600m) le géopotentiel du niveau le plus proche de la pression obligatoire est indiqué.

5 Les stations disposant d'un diffuseur peuvent indiquer "trace". Cela signifie que des précipitations ont touchés le sol mais que la quantité est inférieure à 0.1 mm.

Récapitulatif de la journée
Température [°C] Vent [km/h] Ensoleillement4 [h] Precipitations totale5 [mm] Pression [Hpa]
Min1 Max.2 Moy.3 Max. Min Max.
2.5 16.5 0 14.8 0 h 0 min 0 1016.5 1022.7

1 Température minimale relevée entre 18:00 UTC la veille et 18:00 UTC le jour donné.

2 Température maximale relevée entre 06:00 UTC le jour donné et 06:00 UTC le lendemain.

3 Vent moyen de la journée basé sur les relevés horaires.

4 Ensoleillement en heures relevé entre 06:00 UTC la veille et 06:00 UTC le jour donné.

5 Précipitations totales tombées entre 06:00 UTC la jour donné et 06:00 UTC le lendemain.

Graphiques horaires